sensor_id;sensor_type;location;lat;lon;timestamp;P1;durP1;ratioP1;P2;durP2;ratioP2
55202;SDS011;41077;52.956;6.796;2023-04-22T00:02:08;25.08;;;18.35;;
55202;SDS011;41077;52.956;6.796;2023-04-22T00:04:37;23.88;;;17.83;;
55202;SDS011;41077;52.956;6.796;2023-04-22T00:07:02;17.67;;;15.77;;
55202;SDS011;41077;52.956;6.796;2023-04-22T00:09:28;19.60;;;15.82;;
55202;SDS011;41077;52.956;6.796;2023-04-22T00:11:54;23.45;;;18.20;;
55202;SDS011;41077;52.956;6.796;2023-04-22T00:14:20;20.08;;;16.98;;
55202;SDS011;41077;52.956;6.796;2023-04-22T00:16:45;17.13;;;14.88;;
55202;SDS011;41077;52.956;6.796;2023-04-22T00:19:11;20.00;;;16.48;;
55202;SDS011;41077;52.956;6.796;2023-04-22T00:21:36;30.00;;;20.00;;
55202;SDS011;41077;52.956;6.796;2023-04-22T00:24:02;19.63;;;16.45;;
55202;SDS011;41077;52.956;6.796;2023-04-22T00:26:28;25.25;;;19.50;;
55202;SDS011;41077;52.956;6.796;2023-04-22T00:28:54;29.52;;;18.73;;
55202;SDS011;41077;52.956;6.796;2023-04-22T00:31:20;22.27;;;17.83;;
55202;SDS011;41077;52.956;6.796;2023-04-22T00:33:45;20.77;;;16.90;;
55202;SDS011;41077;52.956;6.796;2023-04-22T00:36:11;18.77;;;16.67;;
55202;SDS011;41077;52.956;6.796;2023-04-22T00:38:36;28.48;;;19.08;;
55202;SDS011;41077;52.956;6.796;2023-04-22T00:41:02;24.50;;;18.83;;
55202;SDS011;41077;52.956;6.796;2023-04-22T00:43:29;21.67;;;18.70;;
55202;SDS011;41077;52.956;6.796;2023-04-22T00:45:55;24.65;;;18.10;;
55202;SDS011;41077;52.956;6.796;2023-04-22T00:48:22;21.45;;;15.93;;
55202;SDS011;41077;52.956;6.796;2023-04-22T00:50:49;23.08;;;18.60;;
55202;SDS011;41077;52.956;6.796;2023-04-22T00:53:15;20.58;;;17.42;;
55202;SDS011;41077;52.956;6.796;2023-04-22T00:55:41;25.38;;;20.15;;
55202;SDS011;41077;52.956;6.796;2023-04-22T00:58:06;16.50;;;14.57;;
55202;SDS011;41077;52.956;6.796;2023-04-22T01:00:32;17.67;;;15.48;;
55202;SDS011;41077;52.956;6.796;2023-04-22T01:02:59;25.25;;;19.60;;
55202;SDS011;41077;52.956;6.796;2023-04-22T01:05:24;20.70;;;17.30;;
55202;SDS011;41077;52.956;6.796;2023-04-22T01:07:53;24.00;;;19.17;;
55202;SDS011;41077;52.956;6.796;2023-04-22T01:10:19;22.77;;;19.58;;
55202;SDS011;41077;52.956;6.796;2023-04-22T01:12:44;22.92;;;19.98;;
55202;SDS011;41077;52.956;6.796;2023-04-22T01:15:10;27.50;;;22.90;;
55202;SDS011;41077;52.956;6.796;2023-04-22T01:17:36;27.58;;;21.35;;
55202;SDS011;41077;52.956;6.796;2023-04-22T01:20:02;24.25;;;21.27;;
55202;SDS011;41077;52.956;6.796;2023-04-22T01:22:31;25.10;;;20.15;;
55202;SDS011;41077;52.956;6.796;2023-04-22T01:25:01;24.05;;;18.67;;
55202;SDS011;41077;52.956;6.796;2023-04-22T01:27:27;26.98;;;20.33;;
55202;SDS011;41077;52.956;6.796;2023-04-22T01:29:53;25.95;;;19.92;;
55202;SDS011;41077;52.956;6.796;2023-04-22T01:32:19;21.35;;;17.55;;
55202;SDS011;41077;52.956;6.796;2023-04-22T01:34:45;27.98;;;22.00;;
55202;SDS011;41077;52.956;6.796;2023-04-22T01:37:11;24.30;;;18.67;;
55202;SDS011;41077;52.956;6.796;2023-04-22T01:39:37;24.98;;;20.83;;
55202;SDS011;41077;52.956;6.796;2023-04-22T01:42:03;31.92;;;24.38;;
55202;SDS011;41077;52.956;6.796;2023-04-22T01:44:29;33.42;;;23.73;;
55202;SDS011;41077;52.956;6.796;2023-04-22T01:46:54;19.73;;;17.08;;
55202;SDS011;41077;52.956;6.796;2023-04-22T01:49:20;29.77;;;23.75;;
55202;SDS011;41077;52.956;6.796;2023-04-22T01:51:46;28.63;;;20.33;;
55202;SDS011;41077;52.956;6.796;2023-04-22T01:54:12;25.38;;;21.77;;
55202;SDS011;41077;52.956;6.796;2023-04-22T01:56:39;32.35;;;23.42;;
55202;SDS011;41077;52.956;6.796;2023-04-22T01:59:06;29.98;;;23.23;;
55202;SDS011;41077;52.956;6.796;2023-04-22T02:01:31;24.13;;;20.67;;
55202;SDS011;41077;52.956;6.796;2023-04-22T02:03:57;26.02;;;20.98;;
55202;SDS011;41077;52.956;6.796;2023-04-22T02:06:23;27.58;;;22.38;;
55202;SDS011;41077;52.956;6.796;2023-04-22T02:08:49;24.92;;;20.75;;
55202;SDS011;41077;52.956;6.796;2023-04-22T02:11:14;29.45;;;23.23;;
55202;SDS011;41077;52.956;6.796;2023-04-22T02:13:40;31.38;;;23.05;;
55202;SDS011;41077;52.956;6.796;2023-04-22T02:16:06;32.70;;;23.88;;
55202;SDS011;41077;52.956;6.796;2023-04-22T02:18:32;29.60;;;23.10;;
55202;SDS011;41077;52.956;6.796;2023-04-22T02:20:58;24.15;;;21.55;;
55202;SDS011;41077;52.956;6.796;2023-04-22T02:23:24;31.70;;;25.08;;
55202;SDS011;41077;52.956;6.796;2023-04-22T02:25:51;27.25;;;21.00;;
55202;SDS011;41077;52.956;6.796;2023-04-22T02:28:18;26.52;;;23.02;;
55202;SDS011;41077;52.956;6.796;2023-04-22T02:30:44;29.25;;;23.10;;
55202;SDS011;41077;52.956;6.796;2023-04-22T02:33:10;25.90;;;21.25;;
55202;SDS011;41077;52.956;6.796;2023-04-22T02:35:36;25.65;;;22.10;;
55202;SDS011;41077;52.956;6.796;2023-04-22T02:38:01;27.10;;;22.30;;
55202;SDS011;41077;52.956;6.796;2023-04-22T02:40:27;30.02;;;24.75;;
55202;SDS011;41077;52.956;6.796;2023-04-22T02:42:53;30.00;;;23.40;;
55202;SDS011;41077;52.956;6.796;2023-04-22T02:45:18;26.60;;;22.90;;
55202;SDS011;41077;52.956;6.796;2023-04-22T02:47:44;32.80;;;26.30;;
55202;SDS011;41077;52.956;6.796;2023-04-22T02:50:10;37.67;;;27.40;;
55202;SDS011;41077;52.956;6.796;2023-04-22T02:52:36;37.15;;;28.75;;
55202;SDS011;41077;52.956;6.796;2023-04-22T02:55:02;42.13;;;29.10;;
55202;SDS011;41077;52.956;6.796;2023-04-22T02:57:29;24.45;;;21.85;;
55202;SDS011;41077;52.956;6.796;2023-04-22T02:59:54;29.52;;;22.83;;
55202;SDS011;41077;52.956;6.796;2023-04-22T03:02:21;34.40;;;26.05;;
55202;SDS011;41077;52.956;6.796;2023-04-22T03:04:47;36.33;;;26.42;;
55202;SDS011;41077;52.956;6.796;2023-04-22T03:07:12;37.78;;;27.08;;
55202;SDS011;41077;52.956;6.796;2023-04-22T03:09:38;36.95;;;27.40;;
55202;SDS011;41077;52.956;6.796;2023-04-22T03:12:04;30.90;;;23.63;;
55202;SDS011;41077;52.956;6.796;2023-04-22T03:14:30;21.17;;;18.98;;
55202;SDS011;41077;52.956;6.796;2023-04-22T03:16:55;24.00;;;21.45;;
55202;SDS011;41077;52.956;6.796;2023-04-22T03:19:21;24.65;;;20.80;;
55202;SDS011;41077;52.956;6.796;2023-04-22T03:21:47;30.70;;;22.58;;
55202;SDS011;41077;52.956;6.796;2023-04-22T03:24:12;22.85;;;20.30;;
55202;SDS011;41077;52.956;6.796;2023-04-22T03:26:38;23.98;;;20.73;;
55202;SDS011;41077;52.956;6.796;2023-04-22T03:29:04;26.48;;;20.65;;
55202;SDS011;41077;52.956;6.796;2023-04-22T03:31:30;28.25;;;23.48;;
55202;SDS011;41077;52.956;6.796;2023-04-22T03:33:55;25.75;;;22.25;;
55202;SDS011;41077;52.956;6.796;2023-04-22T03:36:21;23.25;;;19.20;;
55202;SDS011;41077;52.956;6.796;2023-04-22T03:38:47;20.73;;;18.55;;
55202;SDS011;41077;52.956;6.796;2023-04-22T03:41:12;24.30;;;20.48;;
55202;SDS011;41077;52.956;6.796;2023-04-22T03:43:38;21.52;;;18.98;;
55202;SDS011;41077;52.956;6.796;2023-04-22T03:46:04;24.63;;;20.40;;
55202;SDS011;41077;52.956;6.796;2023-04-22T03:48:29;21.30;;;18.88;;
55202;SDS011;41077;52.956;6.796;2023-04-22T03:50:59;23.38;;;18.48;;
55202;SDS011;41077;52.956;6.796;2023-04-22T03:53:26;18.73;;;16.05;;
55202;SDS011;41077;52.956;6.796;2023-04-22T03:55:52;18.48;;;16.55;;
55202;SDS011;41077;52.956;6.796;2023-04-22T03:58:18;18.98;;;16.95;;
55202;SDS011;41077;52.956;6.796;2023-04-22T04:00:43;18.05;;;16.15;;
55202;SDS011;41077;52.956;6.796;2023-04-22T04:03:09;18.55;;;16.65;;
55202;SDS011;41077;52.956;6.796;2023-04-22T04:05:35;20.85;;;17.75;;
55202;SDS011;41077;52.956;6.796;2023-04-22T04:08:01;19.15;;;17.05;;
55202;SDS011;41077;52.956;6.796;2023-04-22T04:10:27;18.55;;;16.60;;
55202;SDS011;41077;52.956;6.796;2023-04-22T04:12:53;24.15;;;20.15;;
55202;SDS011;41077;52.956;6.796;2023-04-22T04:15:19;21.65;;;19.35;;
55202;SDS011;41077;52.956;6.796;2023-04-22T04:17:45;21.50;;;18.42;;
55202;SDS011;41077;52.956;6.796;2023-04-22T04:20:12;20.63;;;18.45;;
55202;SDS011;41077;52.956;6.796;2023-04-22T04:22:38;33.20;;;25.88;;
55202;SDS011;41077;52.956;6.796;2023-04-22T04:25:04;29.92;;;22.65;;
55202;SDS011;41077;52.956;6.796;2023-04-22T04:27:30;27.00;;;22.60;;
55202;SDS011;41077;52.956;6.796;2023-04-22T04:29:57;34.97;;;24.02;;
55202;SDS011;41077;52.956;6.796;2023-04-22T04:32:22;26.33;;;22.17;;
55202;SDS011;41077;52.956;6.796;2023-04-22T04:34:49;25.17;;;22.08;;
55202;SDS011;41077;52.956;6.796;2023-04-22T04:37:15;25.08;;;22.23;;
55202;SDS011;41077;52.956;6.796;2023-04-22T04:39:41;33.13;;;26.95;;
55202;SDS011;41077;52.956;6.796;2023-04-22T04:42:07;38.83;;;27.77;;
55202;SDS011;41077;52.956;6.796;2023-04-22T04:44:33;38.53;;;28.48;;
55202;SDS011;41077;52.956;6.796;2023-04-22T04:47:00;33.83;;;27.08;;
55202;SDS011;41077;52.956;6.796;2023-04-22T04:49:26;34.38;;;26.95;;
55202;SDS011;41077;52.956;6.796;2023-04-22T04:51:55;43.38;;;28.23;;
55202;SDS011;41077;52.956;6.796;2023-04-22T04:54:21;31.13;;;22.40;;
55202;SDS011;41077;52.956;6.796;2023-04-22T04:56:47;29.83;;;25.33;;
55202;SDS011;41077;52.956;6.796;2023-04-22T04:59:13;29.90;;;25.88;;
55202;SDS011;41077;52.956;6.796;2023-04-22T05:01:39;44.08;;;27.70;;
55202;SDS011;41077;52.956;6.796;2023-04-22T05:04:04;32.25;;;25.35;;
55202;SDS011;41077;52.956;6.796;2023-04-22T05:06:30;24.90;;;22.30;;
55202;SDS011;41077;52.956;6.796;2023-04-22T05:08:57;28.70;;;25.70;;
55202;SDS011;41077;52.956;6.796;2023-04-22T05:11:22;32.42;;;26.52;;
55202;SDS011;41077;52.956;6.796;2023-04-22T05:13:48;29.70;;;26.00;;
55202;SDS011;41077;52.956;6.796;2023-04-22T05:16:14;35.10;;;26.30;;
55202;SDS011;41077;52.956;6.796;2023-04-22T05:18:40;35.85;;;26.77;;
55202;SDS011;41077;52.956;6.796;2023-04-22T05:21:05;30.33;;;26.05;;
55202;SDS011;41077;52.956;6.796;2023-04-22T05:23:31;34.22;;;28.73;;
55202;SDS011;41077;52.956;6.796;2023-04-22T05:25:57;34.38;;;28.83;;
55202;SDS011;41077;52.956;6.796;2023-04-22T05:28:23;29.75;;;25.92;;
55202;SDS011;41077;52.956;6.796;2023-04-22T05:30:49;34.78;;;27.90;;
55202;SDS011;41077;52.956;6.796;2023-04-22T05:33:14;36.33;;;28.17;;
55202;SDS011;41077;52.956;6.796;2023-04-22T05:35:40;33.55;;;27.95;;
55202;SDS011;41077;52.956;6.796;2023-04-22T05:38:06;40.80;;;30.40;;
55202;SDS011;41077;52.956;6.796;2023-04-22T05:40:31;38.30;;;29.52;;
55202;SDS011;41077;52.956;6.796;2023-04-22T05:42:57;33.22;;;26.55;;
55202;SDS011;41077;52.956;6.796;2023-04-22T05:45:23;34.10;;;26.70;;
55202;SDS011;41077;52.956;6.796;2023-04-22T05:47:48;28.88;;;25.00;;
55202;SDS011;41077;52.956;6.796;2023-04-22T05:50:14;26.08;;;23.08;;
55202;SDS011;41077;52.956;6.796;2023-04-22T05:52:40;25.33;;;22.60;;
55202;SDS011;41077;52.956;6.796;2023-04-22T05:55:06;31.48;;;25.88;;
55202;SDS011;41077;52.956;6.796;2023-04-22T05:57:32;26.33;;;21.80;;
55202;SDS011;41077;52.956;6.796;2023-04-22T05:59:58;28.10;;;25.13;;
55202;SDS011;41077;52.956;6.796;2023-04-22T06:02:24;33.40;;;24.27;;
55202;SDS011;41077;52.956;6.796;2023-04-22T06:04:50;29.17;;;26.15;;
55202;SDS011;41077;52.956;6.796;2023-04-22T06:07:16;29.15;;;26.05;;
55202;SDS011;41077;52.956;6.796;2023-04-22T06:09:42;31.25;;;25.77;;
55202;SDS011;41077;52.956;6.796;2023-04-22T06:12:07;29.42;;;25.35;;
55202;SDS011;41077;52.956;6.796;2023-04-22T06:14:34;28.10;;;24.38;;
55202;SDS011;41077;52.956;6.796;2023-04-22T06:17:00;32.05;;;25.20;;
55202;SDS011;41077;52.956;6.796;2023-04-22T06:19:26;29.48;;;23.80;;
55202;SDS011;41077;52.956;6.796;2023-04-22T06:21:51;36.30;;;25.02;;
55202;SDS011;41077;52.956;6.796;2023-04-22T06:24:17;29.67;;;26.33;;
55202;SDS011;41077;52.956;6.796;2023-04-22T06:26:43;30.70;;;24.88;;
55202;SDS011;41077;52.956;6.796;2023-04-22T06:29:09;25.20;;;21.33;;
55202;SDS011;41077;52.956;6.796;2023-04-22T06:31:35;30.25;;;25.17;;
55202;SDS011;41077;52.956;6.796;2023-04-22T06:34:00;25.08;;;22.40;;
55202;SDS011;41077;52.956;6.796;2023-04-22T06:36:26;24.77;;;21.50;;
55202;SDS011;41077;52.956;6.796;2023-04-22T06:38:52;31.35;;;25.60;;
55202;SDS011;41077;52.956;6.796;2023-04-22T06:41:19;27.25;;;23.65;;
55202;SDS011;41077;52.956;6.796;2023-04-22T06:43:46;26.73;;;23.10;;
55202;SDS011;41077;52.956;6.796;2023-04-22T06:46:14;27.88;;;24.80;;
55202;SDS011;41077;52.956;6.796;2023-04-22T06:48:40;26.58;;;23.63;;
55202;SDS011;41077;52.956;6.796;2023-04-22T06:51:06;27.00;;;23.90;;
55202;SDS011;41077;52.956;6.796;2023-04-22T06:53:32;27.08;;;23.92;;
55202;SDS011;41077;52.956;6.796;2023-04-22T06:55:57;24.40;;;21.90;;
55202;SDS011;41077;52.956;6.796;2023-04-22T06:58:23;27.20;;;24.17;;
55202;SDS011;41077;52.956;6.796;2023-04-22T07:00:49;27.20;;;24.35;;
55202;SDS011;41077;52.956;6.796;2023-04-22T07:03:14;30.60;;;24.88;;
55202;SDS011;41077;52.956;6.796;2023-04-22T07:05:40;25.27;;;22.63;;
55202;SDS011;41077;52.956;6.796;2023-04-22T07:08:06;24.38;;;21.90;;
55202;SDS011;41077;52.956;6.796;2023-04-22T07:10:32;23.73;;;21.25;;
55202;SDS011;41077;52.956;6.796;2023-04-22T07:12:58;26.25;;;22.17;;
55202;SDS011;41077;52.956;6.796;2023-04-22T07:15:23;23.42;;;20.83;;
55202;SDS011;41077;52.956;6.796;2023-04-22T07:17:49;27.98;;;21.52;;
55202;SDS011;41077;52.956;6.796;2023-04-22T07:20:15;23.58;;;21.27;;
55202;SDS011;41077;52.956;6.796;2023-04-22T07:22:40;27.52;;;22.52;;
55202;SDS011;41077;52.956;6.796;2023-04-22T07:25:06;25.42;;;22.70;;
55202;SDS011;41077;52.956;6.796;2023-04-22T07:27:33;27.98;;;21.50;;
55202;SDS011;41077;52.956;6.796;2023-04-22T07:30:00;25.27;;;22.52;;
55202;SDS011;41077;52.956;6.796;2023-04-22T07:32:26;25.38;;;20.83;;
55202;SDS011;41077;52.956;6.796;2023-04-22T07:34:52;22.73;;;20.40;;
55202;SDS011;41077;52.956;6.796;2023-04-22T07:37:18;25.30;;;21.63;;
55202;SDS011;41077;52.956;6.796;2023-04-22T07:39:45;22.25;;;19.95;;
55202;SDS011;41077;52.956;6.796;2023-04-22T07:42:11;22.85;;;20.23;;
55202;SDS011;41077;52.956;6.796;2023-04-22T07:44:37;24.08;;;21.58;;
55202;SDS011;41077;52.956;6.796;2023-04-22T07:47:03;22.45;;;20.05;;
55202;SDS011;41077;52.956;6.796;2023-04-22T07:49:29;21.88;;;19.58;;
55202;SDS011;41077;52.956;6.796;2023-04-22T07:51:55;21.95;;;19.75;;
55202;SDS011;41077;52.956;6.796;2023-04-22T07:54:21;23.77;;;19.65;;
55202;SDS011;41077;52.956;6.796;2023-04-22T07:56:46;21.75;;;19.23;;
55202;SDS011;41077;52.956;6.796;2023-04-22T07:59:12;20.77;;;18.55;;
55202;SDS011;41077;52.956;6.796;2023-04-22T08:01:38;19.92;;;17.50;;
55202;SDS011;41077;52.956;6.796;2023-04-22T08:04:03;18.70;;;16.88;;
55202;SDS011;41077;52.956;6.796;2023-04-22T08:06:29;17.13;;;15.43;;
55202;SDS011;41077;52.956;6.796;2023-04-22T08:08:56;19.02;;;13.95;;
55202;SDS011;41077;52.956;6.796;2023-04-22T08:11:21;19.95;;;15.43;;
55202;SDS011;41077;52.956;6.796;2023-04-22T08:13:47;16.95;;;15.27;;
55202;SDS011;41077;52.956;6.796;2023-04-22T08:16:12;16.48;;;14.65;;
55202;SDS011;41077;52.956;6.796;2023-04-22T08:18:38;17.20;;;14.75;;
55202;SDS011;41077;52.956;6.796;2023-04-22T08:21:04;16.15;;;14.55;;
55202;SDS011;41077;52.956;6.796;2023-04-22T08:23:30;14.23;;;12.73;;
55202;SDS011;41077;52.956;6.796;2023-04-22T08:25:56;15.55;;;13.95;;
55202;SDS011;41077;52.956;6.796;2023-04-22T08:28:22;14.95;;;13.38;;
55202;SDS011;41077;52.956;6.796;2023-04-22T08:30:47;16.05;;;12.65;;
55202;SDS011;41077;52.956;6.796;2023-04-22T08:33:13;15.43;;;13.13;;
55202;SDS011;41077;52.956;6.796;2023-04-22T08:35:39;16.85;;;13.05;;
55202;SDS011;41077;52.956;6.796;2023-04-22T08:38:05;15.38;;;13.70;;
55202;SDS011;41077;52.956;6.796;2023-04-22T08:40:31;14.93;;;13.27;;
55202;SDS011;41077;52.956;6.796;2023-04-22T08:42:58;16.30;;;12.80;;
55202;SDS011;41077;52.956;6.796;2023-04-22T08:45:24;16.45;;;12.65;;
55202;SDS011;41077;52.956;6.796;2023-04-22T08:47:49;14.65;;;11.50;;
55202;SDS011;41077;52.956;6.796;2023-04-22T08:50:17;14.82;;;13.32;;
55202;SDS011;41077;52.956;6.796;2023-04-22T08:52:46;13.82;;;12.13;;
55202;SDS011;41077;52.956;6.796;2023-04-22T08:55:12;15.70;;;12.07;;
55202;SDS011;41077;52.956;6.796;2023-04-22T08:57:38;13.43;;;12.02;;
55202;SDS011;41077;52.956;6.796;2023-04-22T09:00:05;12.43;;;11.10;;
55202;SDS011;41077;52.956;6.796;2023-04-22T09:02:33;13.25;;;10.65;;
55202;SDS011;41077;52.956;6.796;2023-04-22T09:05:00;12.02;;;10.82;;
55202;SDS011;41077;52.956;6.796;2023-04-22T09:07:28;15.57;;;10.85;;
55202;SDS011;41077;52.956;6.796;2023-04-22T09:09:55;12.80;;;11.02;;
55202;SDS011;41077;52.956;6.796;2023-04-22T09:12:22;12.45;;;11.18;;
55202;SDS011;41077;52.956;6.796;2023-04-22T09:14:51;15.70;;;11.30;;
55202;SDS011;41077;52.956;6.796;2023-04-22T09:17:28;14.20;;;11.85;;
55202;SDS011;41077;52.956;6.796;2023-04-22T09:19:58;12.50;;;11.20;;
55202;SDS011;41077;52.956;6.796;2023-04-22T09:22:25;13.70;;;10.05;;
55202;SDS011;41077;52.956;6.796;2023-04-22T09:24:52;15.05;;;10.45;;
55202;SDS011;41077;52.956;6.796;2023-04-22T09:27:18;13.25;;;9.77;;
55202;SDS011;41077;52.956;6.796;2023-04-22T09:29:48;11.35;;;10.25;;
55202;SDS011;41077;52.956;6.796;2023-04-22T09:32:15;11.73;;;10.52;;
55202;SDS011;41077;52.956;6.796;2023-04-22T09:34:48;12.60;;;9.48;;
55202;SDS011;41077;52.956;6.796;2023-04-22T09:37:18;10.65;;;9.52;;
55202;SDS011;41077;52.956;6.796;2023-04-22T09:39:47;11.73;;;9.73;;
55202;SDS011;41077;52.956;6.796;2023-04-22T09:42:17;12.00;;;9.68;;
55202;SDS011;41077;52.956;6.796;2023-04-22T09:44:44;12.65;;;9.45;;
55202;SDS011;41077;52.956;6.796;2023-04-22T09:47:11;9.07;;;8.18;;
55202;SDS011;41077;52.956;6.796;2023-04-22T09:49:37;10.10;;;8.68;;
55202;SDS011;41077;52.956;6.796;2023-04-22T09:52:03;8.95;;;8.05;;
55202;SDS011;41077;52.956;6.796;2023-04-22T09:54:29;11.35;;;9.10;;
55202;SDS011;41077;52.956;6.796;2023-04-22T09:56:55;10.63;;;8.82;;
55202;SDS011;41077;52.956;6.796;2023-04-22T10:01:47;8.63;;;7.80;;
55202;SDS011;41077;52.956;6.796;2023-04-22T10:04:14;9.93;;;8.18;;
55202;SDS011;41077;52.956;6.796;2023-04-22T10:06:45;12.15;;;8.57;;
55202;SDS011;41077;52.956;6.796;2023-04-22T10:09:11;11.45;;;8.88;;
55202;SDS011;41077;52.956;6.796;2023-04-22T10:11:38;9.80;;;8.82;;
55202;SDS011;41077;52.956;6.796;2023-04-22T10:14:05;11.63;;;8.52;;
55202;SDS011;41077;52.956;6.796;2023-04-22T10:16:34;9.48;;;8.50;;
55202;SDS011;41077;52.956;6.796;2023-04-22T10:19:03;12.20;;;8.60;;
55202;SDS011;41077;52.956;6.796;2023-04-22T10:21:31;11.52;;;8.80;;
55202;SDS011;41077;52.956;6.796;2023-04-22T10:23:58;8.27;;;7.43;;
55202;SDS011;41077;52.956;6.796;2023-04-22T10:26:40;12.63;;;8.07;;
55202;SDS011;41077;52.956;6.796;2023-04-22T10:29:19;7.45;;;6.70;;
55202;SDS011;41077;52.956;6.796;2023-04-22T10:31:55;7.13;;;5.20;;
55202;SDS011;41077;52.956;6.796;2023-04-22T10:34:39;5.25;;;4.75;;
55202;SDS011;41077;52.956;6.796;2023-04-22T10:37:06;7.13;;;6.25;;
55202;SDS011;41077;52.956;6.796;2023-04-22T10:39:33;6.53;;;5.18;;
55202;SDS011;41077;52.956;6.796;2023-04-22T10:44:52;7.25;;;6.28;;
55202;SDS011;41077;52.956;6.796;2023-04-22T10:47:23;9.23;;;5.72;;
55202;SDS011;41077;52.956;6.796;2023-04-22T10:50:09;7.60;;;5.97;;
55202;SDS011;41077;52.956;6.796;2023-04-22T10:52:47;6.35;;;5.25;;
55202;SDS011;41077;52.956;6.796;2023-04-22T10:55:15;7.13;;;6.18;;
55202;SDS011;41077;52.956;6.796;2023-04-22T10:57:41;7.00;;;5.50;;
55202;SDS011;41077;52.956;6.796;2023-04-22T11:00:16;9.40;;;6.68;;
55202;SDS011;41077;52.956;6.796;2023-04-22T11:02:50;7.18;;;5.57;;
55202;SDS011;41077;52.956;6.796;2023-04-22T11:05:32;9.30;;;5.93;;
55202;SDS011;41077;52.956;6.796;2023-04-22T11:08:18;8.27;;;6.18;;
55202;SDS011;41077;52.956;6.796;2023-04-22T11:10:48;7.97;;;5.28;;
55202;SDS011;41077;52.956;6.796;2023-04-22T11:13:16;8.65;;;6.05;;
55202;SDS011;41077;52.956;6.796;2023-04-22T11:15:47;9.35;;;7.22;;
55202;SDS011;41077;52.956;6.796;2023-04-22T11:18:16;7.97;;;5.85;;
55202;SDS011;41077;52.956;6.796;2023-04-22T11:20:43;8.55;;;5.55;;
55202;SDS011;41077;52.956;6.796;2023-04-22T11:23:09;7.80;;;4.95;;
55202;SDS011;41077;52.956;6.796;2023-04-22T11:25:35;7.00;;;5.50;;
55202;SDS011;41077;52.956;6.796;2023-04-22T11:28:01;8.07;;;5.28;;
55202;SDS011;41077;52.956;6.796;2023-04-22T11:30:27;7.75;;;5.38;;
55202;SDS011;41077;52.956;6.796;2023-04-22T11:32:56;6.68;;;4.80;;
55202;SDS011;41077;52.956;6.796;2023-04-22T11:35:30;7.88;;;5.10;;
55202;SDS011;41077;52.956;6.796;2023-04-22T11:37:58;6.75;;;5.45;;
55202;SDS011;41077;52.956;6.796;2023-04-22T11:40:33;7.82;;;5.93;;
55202;SDS011;41077;52.956;6.796;2023-04-22T11:43:01;6.80;;;6.10;;
55202;SDS011;41077;52.956;6.796;2023-04-22T11:45:29;7.10;;;6.25;;
55202;SDS011;41077;52.956;6.796;2023-04-22T11:47:56;9.55;;;6.47;;
55202;SDS011;41077;52.956;6.796;2023-04-22T11:50:23;7.20;;;5.80;;
55202;SDS011;41077;52.956;6.796;2023-04-22T11:52:51;6.55;;;5.93;;
55202;SDS011;41077;52.956;6.796;2023-04-22T11:55:31;5.95;;;5.30;;
55202;SDS011;41077;52.956;6.796;2023-04-22T12:00:35;7.97;;;6.20;;
55202;SDS011;41077;52.956;6.796;2023-04-22T12:03:02;6.80;;;5.88;;
55202;SDS011;41077;52.956;6.796;2023-04-22T12:05:50;6.82;;;5.38;;
55202;SDS011;41077;52.956;6.796;2023-04-22T12:08:34;6.72;;;5.68;;
55202;SDS011;41077;52.956;6.796;2023-04-22T12:11:04;12.00;;;6.38;;
55202;SDS011;41077;52.956;6.796;2023-04-22T12:16:09;8.40;;;6.75;;
55202;SDS011;41077;52.956;6.796;2023-04-22T12:18:48;8.25;;;7.32;;
55202;SDS011;41077;52.956;6.796;2023-04-22T12:21:17;9.02;;;6.60;;
55202;SDS011;41077;52.956;6.796;2023-04-22T12:23:58;9.00;;;5.97;;
55202;SDS011;41077;52.956;6.796;2023-04-22T12:26:25;8.80;;;6.43;;
55202;SDS011;41077;52.956;6.796;2023-04-22T12:28:52;7.13;;;6.43;;
55202;SDS011;41077;52.956;6.796;2023-04-22T12:31:18;8.80;;;5.90;;
55202;SDS011;41077;52.956;6.796;2023-04-22T12:33:45;10.38;;;6.25;;
55202;SDS011;41077;52.956;6.796;2023-04-22T12:36:11;6.53;;;5.88;;
55202;SDS011;41077;52.956;6.796;2023-04-22T12:38:38;9.98;;;6.35;;
55202;SDS011;41077;52.956;6.796;2023-04-22T12:41:04;7.78;;;5.82;;
55202;SDS011;41077;52.956;6.796;2023-04-22T12:43:30;9.43;;;6.32;;
55202;SDS011;41077;52.956;6.796;2023-04-22T12:46:00;9.88;;;7.18;;
55202;SDS011;41077;52.956;6.796;2023-04-22T12:48:26;7.63;;;6.93;;
55202;SDS011;41077;52.956;6.796;2023-04-22T12:50:52;11.48;;;7.63;;
55202;SDS011;41077;52.956;6.796;2023-04-22T12:53:19;10.73;;;7.32;;
55202;SDS011;41077;52.956;6.796;2023-04-22T12:55:45;10.20;;;7.30;;
55202;SDS011;41077;52.956;6.796;2023-04-22T12:58:12;8.40;;;7.45;;
55202;SDS011;41077;52.956;6.796;2023-04-22T13:00:38;7.75;;;5.90;;
55202;SDS011;41077;52.956;6.796;2023-04-22T13:03:04;7.15;;;5.95;;
55202;SDS011;41077;52.956;6.796;2023-04-22T13:05:30;7.30;;;6.13;;
55202;SDS011;41077;52.956;6.796;2023-04-22T13:07:56;7.70;;;6.03;;
55202;SDS011;41077;52.956;6.796;2023-04-22T13:10:22;7.40;;;6.30;;
55202;SDS011;41077;52.956;6.796;2023-04-22T13:12:48;7.40;;;5.72;;
55202;SDS011;41077;52.956;6.796;2023-04-22T13:15:13;8.30;;;5.93;;
55202;SDS011;41077;52.956;6.796;2023-04-22T13:17:41;7.82;;;6.03;;
55202;SDS011;41077;52.956;6.796;2023-04-22T13:20:08;9.93;;;5.53;;
55202;SDS011;41077;52.956;6.796;2023-04-22T13:22:36;10.10;;;6.22;;
55202;SDS011;41077;52.956;6.796;2023-04-22T13:25:03;9.55;;;6.05;;
55202;SDS011;41077;52.956;6.796;2023-04-22T13:27:29;11.73;;;6.28;;
55202;SDS011;41077;52.956;6.796;2023-04-22T13:29:55;8.30;;;6.45;;
55202;SDS011;41077;52.956;6.796;2023-04-22T13:32:21;8.80;;;6.75;;
55202;SDS011;41077;52.956;6.796;2023-04-22T13:34:46;8.88;;;6.68;;
55202;SDS011;41077;52.956;6.796;2023-04-22T13:37:12;7.32;;;5.82;;
55202;SDS011;41077;52.956;6.796;2023-04-22T13:39:39;7.80;;;6.03;;
55202;SDS011;41077;52.956;6.796;2023-04-22T13:42:05;9.77;;;6.00;;
55202;SDS011;41077;52.956;6.796;2023-04-22T13:44:31;12.43;;;6.88;;
55202;SDS011;41077;52.956;6.796;2023-04-22T13:46:57;8.15;;;7.00;;
55202;SDS011;41077;52.956;6.796;2023-04-22T13:49:23;11.48;;;6.65;;
55202;SDS011;41077;52.956;6.796;2023-04-22T13:51:50;9.75;;;6.15;;
55202;SDS011;41077;52.956;6.796;2023-04-22T13:54:16;10.25;;;6.80;;
55202;SDS011;41077;52.956;6.796;2023-04-22T13:56:42;10.25;;;6.75;;
55202;SDS011;41077;52.956;6.796;2023-04-22T13:59:08;9.00;;;7.03;;
55202;SDS011;41077;52.956;6.796;2023-04-22T14:01:33;8.30;;;7.32;;
55202;SDS011;41077;52.956;6.796;2023-04-22T14:03:59;10.23;;;6.53;;
55202;SDS011;41077;52.956;6.796;2023-04-22T14:06:25;8.43;;;6.82;;
55202;SDS011;41077;52.956;6.796;2023-04-22T14:08:51;8.07;;;6.57;;
55202;SDS011;41077;52.956;6.796;2023-04-22T14:11:16;10.40;;;7.55;;
55202;SDS011;41077;52.956;6.796;2023-04-22T14:13:42;11.10;;;8.60;;
55202;SDS011;41077;52.956;6.796;2023-04-22T14:16:09;13.00;;;10.60;;
55202;SDS011;41077;52.956;6.796;2023-04-22T14:18:36;10.93;;;9.57;;
55202;SDS011;41077;52.956;6.796;2023-04-22T14:21:03;11.32;;;9.95;;
55202;SDS011;41077;52.956;6.796;2023-04-22T14:23:30;15.82;;;9.73;;
55202;SDS011;41077;52.956;6.796;2023-04-22T14:25:57;11.25;;;10.07;;
55202;SDS011;41077;52.956;6.796;2023-04-22T14:28:22;13.05;;;8.70;;
55202;SDS011;41077;52.956;6.796;2023-04-22T14:30:48;9.80;;;8.77;;
55202;SDS011;41077;52.956;6.796;2023-04-22T14:33:14;11.43;;;9.18;;
55202;SDS011;41077;52.956;6.796;2023-04-22T14:35:41;11.02;;;9.35;;
55202;SDS011;41077;52.956;6.796;2023-04-22T14:38:08;11.20;;;9.18;;